Time;durP1;ratioP1;P1;durP2;ratioP2;P2;SDS_P1;SDS_P2;PMS_P1;PMS_P2;Temp;Humidity;BMP_temperature;BMP_pressure;BME280_temperature;BME280_humidity;BME280_pressure;Samples;Min_cycle;Max_cycle;Signal;HPM_P1;HPM_P2
2022/10/15 00:01:10;;;;;;;4.90;4.50;;;;;;;13.64;82.86;95120.34;5092295;28;20439;-78
2022/10/15 00:03:38;;;;;;;5.60;5.07;;;;;;;13.63;82.77;95119.50;5039609;28;20435;-78
2022/10/15 00:06:06;;;;;;;7.63;4.60;;;;;;;13.68;82.70;95121.72;5092070;28;20922;-78
2022/10/15 00:08:33;;;;;;;6.10;4.90;;;;;;;13.75;82.64;95121.97;5040260;28;20447;-78
2022/10/15 00:11:05;;;;;;;5.57;5.07;;;;;;;13.79;82.35;95112.78;5092222;28;20444;-78
2022/10/15 00:13:33;;;;;;;7.43;5.10;;;;;;;13.85;81.54;95114.84;5092126;28;20443;-78
2022/10/15 00:16:00;;;;;;;6.23;5.10;;;;;;;13.83;81.59;95119.44;5092170;28;20451;-78
2022/10/15 00:18:27;;;;;;;6.23;4.67;;;;;;;13.79;81.82;95115.41;5091901;28;20506;-78
2022/10/15 00:20:54;;;;;;;5.77;5.17;;;;;;;13.63;82.74;95116.03;5092013;28;20489;-78
2022/10/15 00:23:20;;;;;;;7.03;6.07;;;;;;;13.55;83.03;95106.19;5091881;28;20931;-78
2022/10/15 00:25:47;;;;;;;6.90;5.70;;;;;;;13.63;82.68;95114.22;5039702;28;20488;-78
2022/10/15 00:28:15;;;;;;;6.60;4.60;;;;;;;13.67;82.87;95106.84;5092034;28;20497;-78
2022/10/15 00:30:42;;;;;;;13.37;5.63;;;;;;;13.74;82.40;95109.75;5092148;28;20490;-78
2022/10/15 00:33:09;;;;;;;9.63;5.07;;;;;;;13.78;82.40;95106.66;5091646;28;20440;-77
2022/10/15 00:35:36;;;;;;;5.20;4.70;;;;;;;13.85;82.33;95102.47;5091760;28;20455;-78
2022/10/15 00:38:02;;;;;;;4.87;4.33;;;;;;;13.92;82.18;95092.19;5091913;28;20850;-78
2022/10/15 00:40:29;;;;;;;6.07;5.43;;;;;;;13.99;82.35;95088.00;5091931;28;20496;-78
2022/10/15 00:42:56;;;;;;;7.23;5.83;;;;;;;14.04;81.69;95091.00;5091760;28;20440;-78
2022/10/15 00:45:24;;;;;;;8.23;5.60;;;;;;;14.07;81.18;95084.63;5091795;28;20435;-78
2022/10/15 00:47:53;;;;;;;8.30;5.70;;;;;;;14.10;81.19;95086.97;5091490;28;20453;-78
2022/10/15 00:50:23;;;;;;;5.87;5.30;;;;;;;14.13;81.04;95084.84;5091751;28;20475;-78
2022/10/15 00:53:00;;;;;;;6.33;5.77;;;;;;;14.12;81.08;95079.72;5091446;28;20862;-78
2022/10/15 00:55:30;;;;;;;4.83;4.40;;;;;;;14.11;81.75;95078.91;5040871;28;20538;-78
2022/10/15 00:58:01;;;;;;;4.83;4.37;;;;;;;14.10;82.37;95076.41;5091304;28;20525;-78
2022/10/15 01:00:30;;;;;;;5.27;4.77;;;;;;;14.09;82.71;95075.56;5091413;28;20535;-77
2022/10/15 01:02:56;;;;;;;5.70;4.73;;;;;;;14.06;82.75;95069.75;5091843;28;20451;-78
2022/10/15 01:05:24;;;;;;;9.23;5.03;;;;;;;14.09;83.13;95072.94;5093681;28;20447;-78
2022/10/15 01:07:50;;;;;;;6.93;5.00;;;;;;;14.09;83.30;95072.09;5095164;28;20452;-78
2022/10/15 01:10:20;;;;;;;5.47;4.80;;;;;;;14.11;83.32;95070.16;5095221;28;20501;-78
2022/10/15 01:13:04;;;;;;;10.23;6.03;;;;;;;14.10;83.44;95069.31;5095144;28;20440;-78
2022/10/15 01:15:40;;;;;;;7.33;5.57;;;;;;;14.08;83.41;95078.34;5095163;28;20452;-78
2022/10/15 01:18:12;;;;;;;10.10;5.53;;;;;;;14.08;83.36;95070.44;5094765;28;20487;-79
2022/10/15 01:20:54;;;;;;;5.90;5.40;;;;;;;14.06;83.49;95067.13;5094984;28;20850;-78
2022/10/15 01:24:00;;;;;;;7.60;6.30;;;;;;;14.06;83.77;95069.75;5094820;28;20926;-78
2022/10/15 01:27:03;;;;;;;6.27;5.77;;;;;;;14.04;83.74;95066.44;5094807;28;20432;-78
2022/10/15 01:29:58;;;;;;;5.70;4.93;;;;;;;14.03;83.87;95062.97;4953972;29;20509;-78
2022/10/15 01:32:29;;;;;;;8.23;5.23;;;;;;;14.01;84.00;95053.53;4954276;29;20493;-78
2022/10/15 01:35:03;;;;;;;6.37;5.83;;;;;;;13.99;83.99;95074.81;4954003;29;20457;-78
2022/10/15 01:37:38;;;;;;;12.50;5.43;;;;;;;13.90;84.34;95073.03;4953942;29;20482;-78
2022/10/15 01:40:09;;;;;;;6.40;5.80;;;;;;;13.90;84.22;95068.59;4921567;29;20442;-78
2022/10/15 01:42:44;;;;;;;9.37;5.83;;;;;;;13.93;84.02;95062.19;4953862;29;20446;-78
2022/10/15 01:45:17;;;;;;;6.80;6.10;;;;;;;13.96;84.23;95072.47;4953774;29;20977;-78
2022/10/15 01:47:51;;;;;;;7.53;5.97;;;;;;;13.95;84.36;95068.16;4953864;29;20607;-78
2022/10/15 01:50:20;;;;;;;5.43;4.93;;;;;;;13.93;84.35;95067.47;4953776;29;20856;-78
2022/10/15 01:52:50;;;;;;;7.30;6.37;;;;;;;13.91;84.42;95075.53;4953611;29;20550;-78
2022/10/15 01:55:19;;;;;;;8.07;6.60;;;;;;;13.82;85.11;95070.28;4953730;29;20506;-78
2022/10/15 01:57:47;;;;;;;7.73;7.03;;;;;;;13.77;85.52;95073.38;4921929;29;20574;-77
2022/10/15 02:00:14;;;;;;;9.40;6.67;;;;;;;13.65;86.40;95079.81;4953674;29;20450;-77
2022/10/15 02:02:41;;;;;;;8.17;5.97;;;;;;;13.50;87.53;95076.78;4953559;29;20805;-78
2022/10/15 02:05:15;;;;;;;8.07;6.10;;;;;;;13.57;86.91;95069.94;4953336;29;20446;-78
2022/10/15 02:07:47;;;;;;;6.57;5.90;;;;;;;13.42;87.88;95076.66;5086619;28;20446;-78
2022/10/15 02:10:22;;;;;;;5.90;5.40;;;;;;;13.43;88.16;95075.69;5093978;28;20526;-78
2022/10/15 02:13:01;;;;;;;8.20;6.00;;;;;;;13.35;88.54;95078.22;4993981;28;20866;-78
2022/10/15 02:15:36;;;;;;;9.47;5.97;;;;;;;13.17;89.77;95069.34;5093186;28;20485;-78
2022/10/15 02:18:09;;;;;;;7.50;6.00;;;;;;;13.32;88.38;95073.25;5093870;28;20490;-77
2022/10/15 02:20:45;;;;;;;6.90;6.20;;;;;;;13.42;88.25;95074.03;5093778;28;20439;-78
2022/10/15 02:23:18;;;;;;;7.50;6.80;;;;;;;13.51;87.74;95073.16;5093874;28;20451;-77
2022/10/15 02:25:46;;;;;;;7.50;6.83;;;;;;;13.53;87.52;95075.66;5093566;28;20961;-78
2022/10/15 02:28:16;;;;;;;9.23;6.77;;;;;;;13.51;87.61;95075.81;5057956;28;20440;-78
2022/10/15 02:30:45;;;;;;;8.77;6.37;;;;;;;13.46;87.71;95075.41;5093583;28;20442;-78
2022/10/15 02:33:14;;;;;;;7.10;5.83;;;;;;;13.40;88.16;95076.00;5093504;28;20447;-78
2022/10/15 02:35:43;;;;;;;6.77;6.07;;;;;;;13.38;88.35;95082.38;5093248;28;20946;-78
2022/10/15 02:38:15;;;;;;;6.67;6.03;;;;;;;13.43;88.31;95078.34;5093391;28;20570;-78
2022/10/15 02:40:43;;;;;;;7.93;6.43;;;;;;;13.48;88.41;95076.09;5093783;28;20443;-77
2022/10/15 02:43:13;;;;;;;7.00;6.40;;;;;;;13.49;87.93;95067.22;5093597;28;20831;-77
2022/10/15 02:45:39;;;;;;;7.37;6.30;;;;;;;13.60;86.87;95080.25;5093248;28;20443;-78
2022/10/15 02:48:07;;;;;;;8.60;6.27;;;;;;;13.63;87.49;95076.47;5041262;28;20440;-78
2022/10/15 02:50:34;;;;;;;7.30;6.60;;;;;;;13.68;87.69;95076.03;5057801;28;20820;-78
2022/10/15 02:53:02;;;;;;;13.63;7.53;;;;;;;13.69;87.75;95075.06;5093336;28;20986;-77
2022/10/15 02:55:29;;;;;;;7.17;6.47;;;;;;;13.72;87.08;95074.78;5093040;28;20463;-78
2022/10/15 02:57:56;;;;;;;7.50;6.80;;;;;;;13.63;87.42;95073.84;5093188;28;21028;-78
2022/10/15 03:00:22;;;;;;;6.70;6.10;;;;;;;13.61;87.44;95074.00;5092948;28;20817;-78
2022/10/15 03:02:49;;;;;;;8.70;6.83;;;;;;;13.63;87.63;95076.47;5092883;28;20504;-78
2022/10/15 03:05:16;;;;;;;9.00;6.67;;;;;;;13.66;86.83;95081.47;5092961;28;20451;-78
2022/10/15 03:07:43;;;;;;;10.40;6.97;;;;;;;13.71;86.65;95084.50;5092803;28;20448;-78
2022/10/15 03:10:11;;;;;;;7.40;6.57;;;;;;;13.74;86.55;95078.09;5092944;28;20489;-78
2022/10/15 03:12:38;;;;;;;8.70;6.70;;;;;;;13.76;86.31;95086.69;5092905;28;20440;-78
2022/10/15 03:15:06;;;;;;;10.27;7.40;;;;;;;13.44;87.99;95080.00;5092858;28;20795;-77
2022/10/15 03:17:32;;;;;;;8.50;7.10;;;;;;;13.46;87.73;95080.69;5093077;28;20440;-78
2022/10/15 03:19:59;;;;;;;7.27;6.57;;;;;;;13.46;88.01;95074.56;5092624;28;20444;-78
2022/10/15 03:22:26;;;;;;;7.17;6.47;;;;;;;13.47;88.07;95071.78;5093074;28;20454;-79
2022/10/15 03:24:53;;;;;;;6.30;5.80;;;;;;;13.47;88.13;95074.44;5092788;28;20439;-77
2022/10/15 03:27:21;;;;;;;9.83;6.97;;;;;;;13.45;88.12;95078.19;5092074;28;20477;-77
2022/10/15 03:29:48;;;;;;;6.90;5.40;;;;;;;13.43;88.26;95080.97;5092427;28;20504;-78
2022/10/15 03:32:14;;;;;;;10.77;6.80;;;;;;;13.46;88.24;95077.22;5092435;28;20448;-77
2022/10/15 03:34:41;;;;;;;8.20;5.40;;;;;;;13.53;88.06;95084.41;5092429;28;20848;-78
2022/10/15 03:37:08;;;;;;;23.73;7.00;;;;;;;13.58;88.04;95078.69;5092487;28;20853;-77
2022/10/15 03:39:35;;;;;;;10.80;6.07;;;;;;;13.64;88.01;95078.97;5092626;28;20484;-78
2022/10/15 03:42:01;;;;;;;6.37;5.70;;;;;;;13.58;87.88;95084.78;5092637;28;20930;-78
2022/10/15 03:44:30;;;;;;;8.07;6.50;;;;;;;13.57;88.12;95077.84;5040287;28;20836;-77
2022/10/15 03:46:56;;;;;;;8.63;6.43;;;;;;;13.48;88.02;95078.72;5092327;28;20440;-78
2022/10/15 03:49:23;;;;;;;6.73;6.10;;;;;;;13.49;88.37;95080.41;5092362;28;20455;-77
2022/10/15 03:51:50;;;;;;;6.87;5.50;;;;;;;13.48;88.45;95086.63;5092244;28;20473;-78
2022/10/15 03:54:17;;;;;;;10.80;6.20;;;;;;;13.46;88.17;95083.31;5092300;28;20454;-78
2022/10/15 03:56:44;;;;;;;7.03;6.37;;;;;;;13.47;88.45;95077.06;5056996;28;20428;-78
2022/10/15 03:59:10;;;;;;;8.33;6.30;;;;;;;13.49;88.55;95077.75;5092975;28;20494;-80
2022/10/15 04:01:38;;;;;;;7.07;6.23;;;;;;;13.51;88.73;95078.44;5093057;28;20443;-78
2022/10/15 04:04:05;;;;;;;9.82;6.65;;;;;;;13.51;89.32;95081.06;5092397;28;20436;-78
2022/10/15 04:06:33;;;;;;;15.33;7.40;;;;;;;13.57;88.69;95088.41;5040466;28;20201;-77
2022/10/15 04:09:00;;;;;;;10.00;6.50;;;;;;;13.59;88.48;95086.50;5007624;28;21021;-78
2022/10/15 04:11:26;;;;;;;7.70;6.93;;;;;;;13.61;88.39;95094.25;5092733;28;20527;-78
2022/10/15 04:13:53;;;;;;;10.27;8.13;;;;;;;13.58;88.18;95091.88;5040481;28;20471;-78
2022/10/15 04:16:20;;;;;;;11.77;8.23;;;;;;;13.53;88.28;95086.22;5092526;28;20451;-78
2022/10/15 04:18:48;;;;;;;7.93;7.03;;;;;;;13.53;88.52;95080.94;5056731;28;20529;-78
2022/10/15 04:21:15;;;;;;;17.50;8.83;;;;;;;13.51;88.48;95082.88;5092578;28;20931;-78
2022/10/15 04:23:42;;;;;;;13.37;8.57;;;;;;;13.43;88.71;95080.97;5092482;28;20437;-78
2022/10/15 04:26:08;;;;;;;9.77;8.00;;;;;;;13.45;88.76;95083.47;5092271;28;20450;-78
2022/10/15 04:28:35;;;;;;;7.13;6.13;;;;;;;13.55;91.88;95082.44;5091659;28;20451;-78
2022/10/15 04:31:02;;;;;;;7.97;6.63;;;;;;;13.48;89.71;95094.53;5092565;28;20451;-79
2022/10/15 04:33:29;;;;;;;9.60;7.17;;;;;;;13.45;88.89;95094.00;5100820;28;20462;-78
2022/10/15 04:36:01;;;;;;;9.40;7.30;;;;;;;13.38;89.40;95092.91;5105699;28;20805;-78
2022/10/15 04:38:28;;;;;;;11.93;8.17;;;;;;;14.29;100.00;95093.94;5113386;28;20483;-78
2022/10/15 04:41:00;;;;;;;13.53;7.20;;;;;;;15.04;100.00;95104.16;5116987;28;20442;-78
2022/10/15 04:43:27;;;;;;;14.40;6.50;;;;;;;15.55;89.53;95104.38;5116569;28;20976;-78
2022/10/15 04:45:57;;;;;;;7.20;6.30;;;;;;;15.59;82.93;95111.03;5116972;28;20447;-79
2022/10/15 04:48:24;;;;;;;13.33;7.50;;;;;;;15.42;81.02;95116.19;5116744;28;20522;-78
2022/10/15 04:50:50;;;;;;;7.60;6.90;;;;;;;15.21;80.96;95123.63;5078260;28;20975;-78
2022/10/15 04:53:19;;;;;;;17.63;7.77;;;;;;;15.04;81.74;95122.66;5116047;28;20998;-78
2022/10/15 04:55:46;;;;;;;8.30;7.50;;;;;;;14.84;82.26;95126.44;5079922;28;20449;-78
2022/10/15 04:58:13;;;;;;;8.23;7.53;;;;;;;14.65;83.13;95126.56;5116376;28;20446;-78
2022/10/15 05:00:40;;;;;;;8.43;7.27;;;;;;;14.47;83.70;95132.66;5116186;28;20467;-78
2022/10/15 05:03:06;;;;;;;15.23;7.77;;;;;;;14.31;84.61;95127.13;5116522;28;20488;-78
2022/10/15 05:05:33;;;;;;;13.97;7.30;;;;;;;14.15;85.47;95130.41;5116292;28;20445;-78
2022/10/15 05:08:01;;;;;;;14.70;8.87;;;;;;;14.05;85.79;95120.88;5105163;28;20449;-78
2022/10/15 05:10:29;;;;;;;8.10;7.40;;;;;;;13.95;86.27;95131.47;5105455;28;20447;-78
2022/10/15 05:12:56;;;;;;;15.43;9.10;;;;;;;13.91;86.90;95130.09;5115881;28;20446;-78
2022/10/15 05:15:23;;;;;;;8.17;7.33;;;;;;;13.88;87.28;95135.69;5115938;28;20443;-78
2022/10/15 05:17:49;;;;;;;9.80;8.10;;;;;;;13.85;87.59;95130.66;5115112;28;20439;-79
2022/10/15 05:20:16;;;;;;;18.47;8.47;;;;;;;13.80;87.58;95136.38;5104910;28;20487;-79
2022/10/15 05:22:43;;;;;;;14.07;7.43;;;;;;;13.77;88.07;95134.03;5095419;28;20782;-79
2022/10/15 05:25:10;;;;;;;9.00;7.43;;;;;;;13.71;87.95;95136.41;5042701;28;20440;-79
2022/10/15 05:27:38;;;;;;;15.43;7.90;;;;;;;13.65;88.02;95137.81;5095021;28;20837;-78
2022/10/15 05:30:06;;;;;;;11.27;7.53;;;;;;;13.60;88.74;95135.59;5095100;28;20458;-78
2022/10/15 05:32:32;;;;;;;10.30;7.40;;;;;;;13.56;89.29;95139.47;5094745;28;20444;-79
2022/10/15 05:34:59;;;;;;;16.03;7.67;;;;;;;13.53;89.12;95141.56;5095317;28;20452;-78
2022/10/15 05:37:26;;;;;;;10.50;7.57;;;;;;;13.51;89.33;95139.06;5094819;28;20444;-78
2022/10/15 05:39:53;;;;;;;13.83;7.37;;;;;;;13.49;89.77;95133.13;5094927;28;20488;-79
2022/10/15 05:42:19;;;;;;;9.30;7.40;;;;;;;13.51;89.96;95140.88;5095430;28;20444;-79
2022/10/15 05:44:48;;;;;;;8.23;7.40;;;;;;;13.50;89.57;95149.75;5095321;28;20444;-79
2022/10/15 05:47:14;;;;;;;8.77;6.77;;;;;;;13.58;89.62;95147.25;5102147;28;20487;-78
2022/10/15 05:49:41;;;;;;;9.60;7.30;;;;;;;13.60;88.95;95145.31;5100820;28;20452;-78
2022/10/15 05:52:08;;;;;;;10.27;6.50;;;;;;;13.61;89.03;95158.38;5058845;28;20499;-79
2022/10/15 05:54:35;;;;;;;11.80;8.17;;;;;;;13.61;89.15;95166.28;5066126;28;20471;-79
2022/10/15 05:57:01;;;;;;;10.83;7.53;;;;;;;13.61;89.00;95168.09;5114286;28;20438;-79
2022/10/15 05:59:31;;;;;;;12.73;7.80;;;;;;;13.57;88.72;95172.78;5052318;28;20483;-78
2022/10/15 06:01:59;;;;;;;17.20;6.83;;;;;;;13.54;88.97;95167.78;5112259;28;20442;-78
2022/10/15 06:04:26;;;;;;;10.77;8.53;;;;;;;13.53;89.42;95171.41;5100983;28;20435;-78
2022/10/15 06:06:52;;;;;;;9.53;8.43;;;;;;;13.50;89.76;95171.69;5114427;28;20446;-78
2022/10/15 06:09:19;;;;;;;14.93;9.50;;;;;;;13.49;90.14;95172.66;5114553;28;20859;-78
2022/10/15 06:11:46;;;;;;;10.10;8.37;;;;;;;13.48;89.71;95172.81;5115005;28;20910;-77
2022/10/15 06:14:13;;;;;;;16.33;8.90;;;;;;;13.52;90.20;95172.38;5104632;28;20813;-78
2022/10/15 06:16:39;;;;;;;9.93;8.63;;;;;;;13.55;90.34;95180.00;5096294;28;20447;-78
2022/10/15 06:19:08;;;;;;;15.20;8.80;;;;;;;13.54;90.27;95174.88;5113803;28;20815;-78
2022/10/15 06:21:35;;;;;;;13.90;10.53;;;;;;;13.59;89.99;95176.13;5100158;28;20560;-78
2022/10/15 06:24:01;;;;;;;14.83;11.40;;;;;;;13.70;90.33;95171.66;5100605;28;20936;-80
2022/10/15 06:26:28;;;;;;;15.47;10.03;;;;;;;13.82;90.17;95173.97;5101950;28;20467;-79
2022/10/15 06:28:55;;;;;;;12.50;10.23;;;;;;;13.95;89.89;95182.44;5112454;28;20435;-78
2022/10/15 06:31:22;;;;;;;10.03;8.73;;;;;;;14.06;89.44;95184.06;5095221;28;20531;-78
2022/10/15 06:33:49;;;;;;;8.87;7.60;;;;;;;14.19;88.82;95189.03;5099895;28;20456;-78
2022/10/15 06:36:17;;;;;;;15.70;7.83;;;;;;;14.32;87.93;95193.97;5114310;28;20994;-79
2022/10/15 06:38:44;;;;;;;10.83;7.13;;;;;;;14.52;87.51;95198.22;5112554;28;20913;-80
2022/10/15 06:41:11;;;;;;;11.90;6.83;;;;;;;14.92;86.50;95197.84;5093030;28;20483;-80
2022/10/15 06:43:38;;;;;;;11.60;8.30;;;;;;;15.43;84.54;95205.13;5107092;28;20879;-79
2022/10/15 06:46:06;;;;;;;15.50;7.60;;;;;;;16.03;82.11;95207.09;5099083;28;20434;-80
2022/10/15 06:48:33;;;;;;;8.33;7.43;;;;;;;16.51;78.06;95211.03;5101302;28;21026;-79
2022/10/15 06:51:01;;;;;;;8.00;7.20;;;;;;;16.29;76.30;95212.41;5108232;28;20450;-80
2022/10/15 06:53:30;;;;;;;7.60;6.80;;;;;;;16.30;75.79;95216.72;5113659;28;20475;-81
2022/10/15 06:55:58;;;;;;;9.50;6.80;;;;;;;16.49;75.46;95208.53;5098853;28;20455;-81
2022/10/15 06:58:25;;;;;;;12.33;7.10;;;;;;;16.27;75.23;95217.03;5104569;28;20451;-79
2022/10/15 07:00:51;;;;;;;7.93;6.37;;;;;;;15.82;76.88;95210.09;5106675;28;20477;-80
2022/10/15 07:03:18;;;;;;;10.90;6.50;;;;;;;16.21;77.17;95204.41;5091868;28;20440;-79
2022/10/15 07:05:45;;;;;;;10.27;7.70;;;;;;;16.52;74.13;95213.53;5092561;28;20501;-80
2022/10/15 07:08:12;;;;;;;10.90;6.77;;;;;;;16.47;74.14;95207.84;5092367;28;20440;-79
2022/10/15 07:10:40;;;;;;;13.37;7.13;;;;;;;16.56;73.74;95212.22;5103384;28;20508;-79
2022/10/15 07:13:07;;;;;;;11.07;7.00;;;;;;;16.05;73.21;95219.19;5075495;28;20961;-79
2022/10/15 07:15:34;;;;;;;9.30;6.13;;;;;;;15.82;74.22;95223.31;5091891;28;20441;-79
2022/10/15 07:18:01;;;;;;;7.30;6.20;;;;;;;16.18;74.25;95217.94;5092368;28;20457;-79
2022/10/15 07:20:29;;;;;;;6.37;5.70;;;;;;;16.23;74.59;95216.50;5092491;28;20513;-80
2022/10/15 07:22:57;;;;;;;12.23;6.37;;;;;;;16.27;74.28;95222.31;5092162;28;20488;-80
2022/10/15 07:25:24;;;;;;;7.97;6.30;;;;;;;16.11;73.80;95223.88;5099023;28;20485;-80
2022/10/15 07:27:54;;;;;;;6.10;5.50;;;;;;;16.05;73.91;95223.66;5112607;28;20443;-79
2022/10/15 07:30:21;;;;;;;7.93;6.40;;;;;;;16.06;74.73;95220.03;5093519;28;20493;-79
2022/10/15 07:32:48;;;;;;;9.93;7.00;;;;;;;16.36;74.33;95222.19;5091421;28;20447;-79
2022/10/15 07:35:15;;;;;;;9.33;5.83;;;;;;;16.54;73.21;95218.66;5106201;28;20451;-81
2022/10/15 07:37:42;;;;;;;7.80;6.70;;;;;;;16.74;72.28;95214.78;5101719;28;20435;-79
2022/10/15 07:40:09;;;;;;;8.03;5.53;;;;;;;16.60;72.84;95221.50;5096054;28;20973;-80
2022/10/15 07:42:36;;;;;;;8.80;6.00;;;;;;;16.67;72.81;95219.91;5091326;28;20923;-79
2022/10/15 07:45:05;;;;;;;7.93;6.20;;;;;;;16.85;71.00;95222.47;5106520;28;20470;-79
2022/10/15 07:47:32;;;;;;;7.43;5.47;;;;;;;16.77;70.62;95224.22;5076148;28;20435;-79
2022/10/15 07:49:59;;;;;;;6.13;5.53;;;;;;;16.96;70.51;95226.63;5112076;28;20443;-81
2022/10/15 07:52:26;;;;;;;8.67;5.93;;;;;;;16.57;70.85;95228.94;5056580;28;20871;-78
2022/10/15 07:54:52;;;;;;;6.00;5.00;;;;;;;16.52;70.57;95224.13;5098761;28;20451;-78
2022/10/15 07:57:19;;;;;;;6.80;5.30;;;;;;;16.08;72.35;95224.19;5058814;28;20454;-78
2022/10/15 07:59:46;;;;;;;7.27;5.87;;;;;;;16.23;72.10;95227.09;5105221;28;20492;-79
2022/10/15 08:02:16;;;;;;;5.70;4.97;;;;;;;16.49;72.13;95226.25;5093059;28;20446;-78
2022/10/15 08:04:43;;;;;;;6.50;5.73;;;;;;;16.34;69.42;95229.47;5092154;28;20447;-80
2022/10/15 08:07:10;;;;;;;5.97;5.23;;;;;;;16.57;69.38;95227.13;5039008;28;20810;-79
2022/10/15 08:09:37;;;;;;;8.57;6.67;;;;;;;16.57;70.09;95231.59;5101083;28;20466;-78
2022/10/15 08:12:05;;;;;;;9.70;5.60;;;;;;;16.81;68.67;95226.44;5110202;28;20434;-79
2022/10/15 08:14:32;;;;;;;8.17;6.10;;;;;;;16.84;68.96;95222.63;5093856;28;20492;-78
2022/10/15 08:16:59;;;;;;;6.83;5.87;;;;;;;16.61;70.50;95231.09;5054434;28;20443;-80
2022/10/15 08:19:27;;;;;;;8.13;5.90;;;;;;;16.71;69.63;95221.25;5102297;28;20930;-78
2022/10/15 08:21:54;;;;;;;6.57;5.33;;;;;;;16.95;69.77;95223.16;5079901;28;20964;-78
2022/10/15 08:24:21;;;;;;;6.90;5.20;;;;;;;17.27;69.06;95224.22;5115858;28;20443;-79
2022/10/15 08:26:48;;;;;;;9.23;6.13;;;;;;;17.18;66.42;95220.75;5115609;28;20796;-79
2022/10/15 08:29:15;;;;;;;6.20;4.80;;;;;;;17.31;66.48;95207.81;5098489;28;20459;-79
2022/10/15 08:31:42;;;;;;;7.30;5.07;;;;;;;17.62;64.73;95215.16;5105532;28;20442;-79
2022/10/15 08:34:09;;;;;;;9.90;5.80;;;;;;;17.93;64.80;95213.56;5099692;28;20451;-78
2022/10/15 08:36:37;;;;;;;10.70;6.13;;;;;;;17.73;64.44;95200.78;5095116;28;20442;-79
2022/10/15 08:39:06;;;;;;;7.23;5.40;;;;;;;18.06;64.18;95206.88;5095385;28;20447;-78
2022/10/15 08:41:37;;;;;;;5.80;5.30;;;;;;;18.28;62.37;95203.53;5049818;28;20471;-80
2022/10/15 08:44:06;;;;;;;7.27;5.57;;;;;;;18.51;62.45;95207.13;5112376;28;20446;-78
2022/10/15 08:46:38;;;;;;;6.23;5.30;;;;;;;18.47;61.81;95195.16;5063378;28;20450;-81
2022/10/15 08:49:14;;;;;;;5.87;5.33;;;;;;;18.45;60.23;95199.81;5098707;28;20471;-79
2022/10/15 08:51:48;;;;;;;10.00;5.43;;;;;;;18.61;59.71;95198.94;5105115;28;20431;-79
2022/10/15 08:54:18;;;;;;;7.40;5.70;;;;;;;18.70;60.52;95205.09;5100123;28;20945;-79
2022/10/15 08:56:48;;;;;;;6.30;5.70;;;;;;;18.37;59.66;95196.38;5107853;28;20416;-80
2022/10/15 08:59:23;;;;;;;8.43;5.30;;;;;;;17.95;61.15;95200.94;5094999;28;20439;-80
2022/10/15 09:01:54;;;;;;;5.90;5.30;;;;;;;17.40;61.01;95199.91;5102809;28;20446;-80
2022/10/15 09:04:30;;;;;;;12.30;6.47;;;;;;;17.39;63.17;95195.59;5100345;28;20451;-80
2022/10/15 09:07:07;;;;;;;6.90;5.27;;;;;;;17.31;63.01;95201.69;5104041;28;20442;-79
2022/10/15 09:09:41;;;;;;;5.57;5.03;;;;;;;17.65;63.51;95193.63;5099011;28;20432;-79
2022/10/15 09:12:29;;;;;;;10.20;5.73;;;;;;;17.99;63.36;95189.97;5104339;28;20442;-80
2022/10/15 09:14:58;;;;;;;8.30;5.27;;;;;;;18.11;62.22;95189.44;5096731;28;20443;-80
2022/10/15 09:17:28;;;;;;;5.83;4.47;;;;;;;17.84;59.86;95197.78;5105927;28;20435;-80
2022/10/15 09:19:58;;;;;;;6.90;4.67;;;;;;;17.67;59.60;95198.75;5097176;28;20489;-80
2022/10/15 09:22:29;;;;;;;4.80;4.40;;;;;;;17.81;60.88;95198.94;5104561;28;20443;-80
2022/10/15 09:24:56;;;;;;;5.20;4.70;;;;;;;18.01;59.90;95193.28;5096857;28;20440;-79
2022/10/15 09:27:31;;;;;;;7.80;4.63;;;;;;;18.14;59.46;95189.09;5094237;28;20432;-80
2022/10/15 09:30:05;;;;;;;10.00;5.33;;;;;;;18.29;58.75;95188.44;5094574;28;20540;-79
2022/10/15 09:32:37;;;;;;;8.73;4.50;;;;;;;18.06;56.74;95196.25;5060078;28;20448;-80
2022/10/15 09:35:14;;;;;;;9.87;4.53;;;;;;;17.56;58.48;95197.25;5110674;28;20454;-79
2022/10/15 09:37:50;;;;;;;5.50;4.47;;;;;;;17.83;57.85;95183.66;5114916;28;20518;-79
2022/10/15 09:40:35;;;;;;;5.87;3.93;;;;;;;17.83;55.83;95186.31;5100181;28;20455;-80
2022/10/15 09:43:04;;;;;;;3.97;3.57;;;;;;;17.74;57.12;95184.69;5102732;28;20448;-81
2022/10/15 09:45:32;;;;;;;7.10;5.30;;;;;;;17.74;59.14;95190.00;5108505;28;20440;-80
2022/10/15 09:48:00;;;;;;;7.63;5.20;;;;;;;17.81;59.14;95183.00;5104735;28;20442;-79
2022/10/15 09:50:35;;;;;;;7.30;4.90;;;;;;;17.62;58.76;95178.00;5097738;28;20464;-81
2022/10/15 09:53:14;;;;;;;8.73;5.07;;;;;;;17.34;59.96;95170.34;5103748;28;20477;-80
2022/10/15 09:55:45;;;;;;;5.50;5.00;;;;;;;17.68;58.50;95166.78;5114580;28;20953;-81
2022/10/15 09:58:17;;;;;;;5.13;4.63;;;;;;;17.70;57.63;95167.44;5100948;28;20443;-81
2022/10/15 10:00:53;;;;;;;6.87;4.63;;;;;;;17.60;58.57;95159.59;5100974;28;20476;-80
2022/10/15 10:03:22;;;;;;;7.23;5.90;;;;;;;17.71;59.05;95160.31;5100913;28;20459;-81
2022/10/15 10:05:50;;;;;;;5.57;5.00;;;;;;;17.55;57.95;95163.75;5100934;28;20927;-80
2022/10/15 10:08:21;;;;;;;9.47;5.43;;;;;;;17.69;58.14;95163.13;5054648;28;20435;-80
2022/10/15 10:10:54;;;;;;;6.07;5.07;;;;;;;18.03;56.79;95170.06;5093838;28;20455;-81
2022/10/15 10:13:24;;;;;;;4.50;4.10;;;;;;;18.33;55.38;95168.47;5072168;28;20437;-81
2022/10/15 10:15:53;;;;;;;6.80;4.33;;;;;;;18.60;54.79;95172.53;5105635;28;20500;-81
2022/10/15 10:18:21;;;;;;;6.13;5.03;;;;;;;18.84;54.88;95167.16;5109449;28;20787;-81
2022/10/15 10:20:58;;;;;;;9.13;5.40;;;;;;;19.11;54.31;95166.69;5093502;28;20480;-79
2022/10/15 10:23:33;;;;;;;7.20;6.30;;;;;;;19.10;53.29;95170.34;5100270;28;20542;-81
2022/10/15 10:26:02;;;;;;;9.57;4.50;;;;;;;18.78;51.22;95159.84;5063891;28;20436;-79
2022/10/15 10:28:33;;;;;;;9.23;6.10;;;;;;;18.39;54.25;95155.34;5115190;28;20949;-80
2022/10/15 10:31:03;;;;;;;7.60;5.23;;;;;;;17.94;55.62;95155.97;5113517;28;20937;-81
2022/10/15 10:33:34;;;;;;;5.97;5.37;;;;;;;17.74;56.56;95166.09;5099147;28;20947;-80
2022/10/15 10:36:02;;;;;;;14.97;13.57;;;;;;;17.65;56.09;95164.44;5101192;28;20830;-80
2022/10/15 10:38:33;;;;;;;5.83;5.30;;;;;;;17.60;55.94;95161.41;5107249;28;20460;-80
2022/10/15 10:41:06;;;;;;;6.30;5.37;;;;;;;17.41;56.70;95153.81;5093097;28;20475;-81
2022/10/15 10:43:34;;;;;;;6.07;5.47;;;;;;;17.43;55.91;95152.63;5111991;28;20443;-80
2022/10/15 10:46:04;;;;;;;5.07;4.57;;;;;;;17.49;55.99;95164.41;5113637;28;20803;-82
2022/10/15 10:48:39;;;;;;;5.00;4.50;;;;;;;17.42;56.72;95155.47;5099256;28;20439;-80
2022/10/15 10:51:10;;;;;;;7.27;5.03;;;;;;;17.49;57.20;95157.28;5102331;28;20435;-78
2022/10/15 10:53:47;;;;;;;5.60;5.03;;;;;;;17.31;57.51;95157.44;5096699;28;20461;-80
2022/10/15 10:56:14;;;;;;;7.27;4.43;;;;;;;17.30;57.75;95149.63;5058537;28;20436;-79
2022/10/15 10:58:42;;;;;;;4.23;3.93;;;;;;;17.26;58.32;95146.47;5093180;28;20444;-79
2022/10/15 11:01:12;;;;;;;6.33;4.87;;;;;;;17.30;57.96;95150.47;5095746;28;21262;-79
2022/10/15 11:03:41;;;;;;;6.13;5.30;;;;;;;17.20;57.78;95149.81;5084706;28;20974;-79
2022/10/15 11:06:52;;;;;;;6.20;5.10;;;;;;;16.91;59.07;95152.91;5108885;28;20467;-78
2022/10/15 11:09:36;;;;;;;5.43;4.50;;;;;;;17.20;58.80;95148.97;5035443;28;20443;-78
2022/10/15 11:12:15;;;;;;;10.37;5.50;;;;;;;17.36;58.86;95150.81;5030335;28;20495;-78
2022/10/15 11:14:53;;;;;;;5.63;4.70;;;;;;;17.58;58.04;95142.19;4993476;28;20451;-77
2022/10/15 11:17:26;;;;;;;7.53;5.20;;;;;;;17.90;58.19;95134.19;5039834;28;20511;-78
2022/10/15 11:20:02;;;;;;;4.87;4.43;;;;;;;18.11;55.20;95136.31;5035534;28;20945;-78
2022/10/15 11:22:44;;;;;;;4.57;4.10;;;;;;;18.34;54.49;95131.13;5002909;28;21345;-78
2022/10/15 11:25:22;;;;;;;6.90;3.80;;;;;;;18.45;53.26;95132.56;5031183;28;20534;-81
2022/10/15 11:28:01;;;;;;;7.53;4.80;;;;;;;18.42;54.62;95139.03;4996545;28;20439;-78
2022/10/15 11:30:38;;;;;;;7.37;4.40;;;;;;;18.18;55.52;95134.63;5029936;28;20954;-77
2022/10/15 11:33:25;;;;;;;4.93;4.43;;;;;;;17.76;56.28;95132.25;5043215;28;20449;-78
2022/10/15 11:35:59;;;;;;;7.50;4.57;;;;;;;17.40;56.70;95145.00;5040665;28;20454;-77
2022/10/15 11:38:35;;;;;;;7.63;4.47;;;;;;;17.22;57.44;95139.84;5031472;28;20446;-77
2022/10/15 11:41:26;;;;;;;6.90;4.20;;;;;;;17.16;58.07;95139.69;5016565;28;20477;-78
2022/10/15 11:44:14;;;;;;;6.43;5.00;;;;;;;17.11;58.22;95132.22;5055978;28;20453;-79